Time;durP1;ratioP1;P1;durP2;ratioP2;P2;SDS_P1;SDS_P2;PMS_P1;PMS_P2;Temp;Humidity;BMP_temperature;BMP_pressure;BME280_temperature;BME280_humidity;BME280_pressure;Samples;Min_cycle;Max_cycle;Signal;HPM_P1;HPM_P2
2021/05/15 00:01:25;;;;;;;13.80;8.95;;;15.50;67.20;;;;;;5050977;28;20036;-72
2021/05/15 00:03:50;;;;;;;13.85;8.90;;;15.50;67.30;;;;;;5066518;28;20119;-72
2021/05/15 00:06:16;;;;;;;15.88;9.15;;;15.40;67.30;;;;;;5058399;28;20107;-72
2021/05/15 00:08:41;;;;;;;19.00;10.75;;;15.40;67.30;;;;;;5051120;28;20489;-72
2021/05/15 00:11:07;;;;;;;14.90;9.65;;;15.40;67.50;;;;;;5053193;28;20122;-73
2021/05/15 00:13:33;;;;;;;14.38;8.70;;;15.40;67.70;;;;;;5062817;28;20040;-72
2021/05/15 00:15:59;;;;;;;14.73;9.73;;;15.40;67.70;;;;;;5057827;28;20413;-72
2021/05/15 00:18:25;;;;;;;16.25;10.98;;;15.40;67.70;;;;;;5050372;28;20039;-72
2021/05/15 00:20:50;;;;;;;14.90;9.30;;;15.40;67.70;;;;;;5053865;28;20040;-72
2021/05/15 00:23:16;;;;;;;18.85;10.43;;;15.40;67.70;;;;;;5060411;28;20037;-72
2021/05/15 00:25:42;;;;;;;18.25;10.85;;;15.30;67.70;;;;;;5070828;28;20120;-72
2021/05/15 00:28:08;;;;;;;17.77;11.02;;;15.20;67.90;;;;;;5057716;28;20098;-72
2021/05/15 00:30:33;;;;;;;17.10;10.07;;;15.20;68.10;;;;;;5080765;28;20510;-73
2021/05/15 00:32:59;;;;;;;20.42;10.80;;;15.20;68.10;;;;;;5052853;28;20035;-73
2021/05/15 00:35:25;;;;;;;17.95;9.68;;;15.20;68.20;;;;;;5086417;28;20059;-72
2021/05/15 00:37:51;;;;;;;16.58;11.07;;;15.20;68.20;;;;;;5051018;28;20054;-72
2021/05/15 00:40:16;;;;;;;14.43;9.68;;;15.20;68.30;;;;;;5052815;28;20080;-72
2021/05/15 00:42:42;;;;;;;18.92;12.40;;;15.20;68.30;;;;;;5065777;28;20101;-72
2021/05/15 00:45:10;;;;;;;18.33;12.23;;;15.10;68.20;;;;;;5055049;28;20132;-72
2021/05/15 00:47:37;;;;;;;17.35;10.38;;;15.00;68.40;;;;;;5051537;28;20040;-72
2021/05/15 00:50:05;;;;;;;16.15;10.68;;;14.90;68.60;;;;;;5053043;28;20060;-72
2021/05/15 00:52:35;;;;;;;16.48;10.65;;;14.90;68.80;;;;;;5056311;28;20017;-73
2021/05/15 00:55:09;;;;;;;17.63;11.15;;;14.90;68.80;;;;;;5056044;28;20052;-73
2021/05/15 00:57:36;;;;;;;20.17;11.55;;;14.90;68.90;;;;;;5059018;28;20393;-72
2021/05/15 01:00:05;;;;;;;16.83;11.00;;;14.80;69.00;;;;;;5060708;28;20115;-73
2021/05/15 01:02:31;;;;;;;17.58;11.52;;;14.70;69.10;;;;;;5057180;28;20032;-72
2021/05/15 01:04:57;;;;;;;17.52;10.98;;;14.80;69.10;;;;;;5054177;28;20078;-72
2021/05/15 01:07:23;;;;;;;17.73;10.70;;;14.80;69.10;;;;;;5061427;28;20033;-72
2021/05/15 01:09:48;;;;;;;18.33;11.15;;;14.80;69.20;;;;;;5061392;28;20125;-72
2021/05/15 01:12:14;;;;;;;21.80;12.38;;;14.80;69.00;;;;;;5052840;28;20402;-72
2021/05/15 01:14:40;;;;;;;18.88;11.13;;;14.80;69.00;;;;;;5064732;28;20033;-72
2021/05/15 01:17:10;;;;;;;14.45;9.32;;;14.80;69.10;;;;;;5059737;28;20077;-72
2021/05/15 01:19:37;;;;;;;17.42;9.65;;;14.80;69.00;;;;;;5060758;28;20037;-72
2021/05/15 01:22:15;;;;;;;19.33;12.73;;;14.90;69.10;;;;;;5050024;28;20044;-72
2021/05/15 01:24:45;;;;;;;17.92;9.70;;;14.90;68.90;;;;;;5058253;28;20076;-72
2021/05/15 01:27:13;;;;;;;17.10;10.75;;;14.90;68.90;;;;;;5050976;28;20145;-72
2021/05/15 01:29:40;;;;;;;17.42;10.75;;;15.00;69.00;;;;;;5053642;28;20061;-73
2021/05/15 01:32:07;;;;;;;16.17;10.07;;;15.00;69.10;;;;;;5054745;28;20044;-72
2021/05/15 01:34:32;;;;;;;17.38;10.80;;;15.00;69.20;;;;;;5061849;28;20060;-73
2021/05/15 01:36:58;;;;;;;16.35;11.50;;;15.00;69.30;;;;;;5055083;28;20073;-72
2021/05/15 01:39:23;;;;;;;16.65;11.18;;;15.00;69.30;;;;;;5063360;28;20512;-72
2021/05/15 01:41:49;;;;;;;15.60;9.73;;;15.00;69.20;;;;;;5050851;28;20479;-73
2021/05/15 01:44:18;;;;;;;17.45;10.70;;;15.00;69.20;;;;;;5062236;28;20496;-73
2021/05/15 01:46:44;;;;;;;19.48;12.25;;;15.10;69.10;;;;;;5060388;28;20068;-73
2021/05/15 01:49:09;;;;;;;17.27;10.52;;;15.00;69.00;;;;;;5083078;28;20079;-72
2021/05/15 01:51:35;;;;;;;17.83;11.07;;;15.10;69.00;;;;;;5054354;28;20048;-73
2021/05/15 01:54:02;;;;;;;16.98;12.00;;;15.10;69.10;;;;;;5053943;28;20327;-73
2021/05/15 01:56:29;;;;;;;16.65;10.75;;;15.00;69.00;;;;;;5064921;28;20041;-73
2021/05/15 01:58:56;;;;;;;18.15;11.75;;;15.00;69.00;;;;;;5058123;28;20528;-73
2021/05/15 02:01:24;;;;;;;19.48;12.75;;;15.00;69.00;;;;;;5049891;28;20037;-72
2021/05/15 02:03:50;;;;;;;16.85;11.57;;;14.90;69.10;;;;;;5048852;28;20359;-73
2021/05/15 02:06:16;;;;;;;23.30;12.02;;;14.90;69.30;;;;;;5052642;28;20044;-73
2021/05/15 02:08:45;;;;;;;18.38;11.32;;;14.90;69.40;;;;;;5056754;28;21049;-73
2021/05/15 02:11:11;;;;;;;22.00;12.50;;;14.80;69.40;;;;;;5049475;28;20025;-73
2021/05/15 02:13:37;;;;;;;17.85;11.07;;;14.80;69.50;;;;;;5059283;28;20020;-72
2021/05/15 02:16:03;;;;;;;20.90;13.10;;;14.70;69.60;;;;;;5061474;28;20093;-72
2021/05/15 02:18:29;;;;;;;16.02;10.85;;;14.70;69.70;;;;;;5055601;28;20108;-72
2021/05/15 02:20:56;;;;;;;18.33;12.38;;;14.70;69.80;;;;;;5055281;28;20029;-72
2021/05/15 02:23:23;;;;;;;20.05;12.35;;;14.70;69.90;;;;;;5068866;28;20380;-73
2021/05/15 02:25:50;;;;;;;17.25;11.13;;;14.70;70.10;;;;;;5083589;28;20033;-72
2021/05/15 02:28:16;;;;;;;18.92;12.25;;;14.70;70.10;;;;;;5060084;28;20083;-72
2021/05/15 02:30:43;;;;;;;19.02;11.85;;;14.70;70.00;;;;;;5047730;28;20083;-72
2021/05/15 02:33:08;;;;;;;19.42;11.98;;;14.70;69.90;;;;;;5056299;28;20044;-73
2021/05/15 02:35:35;;;;;;;16.40;11.90;;;14.70;70.10;;;;;;5043826;28;20455;-72
2021/05/15 02:38:01;;;;;;;19.48;11.25;;;14.70;70.10;;;;;;5050141;28;20040;-72
2021/05/15 02:40:27;;;;;;;18.30;11.65;;;14.70;70.10;;;;;;5053909;28;20037;-72
2021/05/15 02:42:54;;;;;;;19.15;11.73;;;14.70;70.20;;;;;;5052208;28;20516;-72
2021/05/15 02:45:22;;;;;;;20.95;11.70;;;14.70;70.20;;;;;;5061874;28;20101;-72
2021/05/15 02:47:49;;;;;;;17.75;11.35;;;14.70;70.50;;;;;;5054700;28;20414;-72
2021/05/15 02:50:17;;;;;;;21.25;12.75;;;14.70;70.50;;;;;;5056801;28;20025;-72
2021/05/15 02:52:43;;;;;;;17.33;11.73;;;14.80;70.50;;;;;;5058038;28;20020;-72
2021/05/15 02:55:12;;;;;;;26.38;13.55;;;14.70;70.50;;;;;;5057380;28;20045;-73
2021/05/15 02:57:41;;;;;;;19.23;11.88;;;14.70;70.50;;;;;;5054730;28;20109;-72
2021/05/15 03:00:09;;;;;;;19.08;13.35;;;14.70;70.40;;;;;;5059460;28;20083;-72
2021/05/15 03:02:35;;;;;;;19.95;13.10;;;14.60;70.50;;;;;;5064659;28;20506;-72
2021/05/15 03:05:02;;;;;;;20.05;12.55;;;14.70;70.70;;;;;;5060030;28;20028;-72
2021/05/15 03:07:27;;;;;;;19.05;12.18;;;14.70;70.80;;;;;;5067415;28;20025;-72
2021/05/15 03:09:53;;;;;;;17.48;12.18;;;14.60;70.80;;;;;;5068628;28;20032;-72
2021/05/15 03:12:19;;;;;;;20.67;13.50;;;14.70;70.70;;;;;;5072259;28;20041;-72
2021/05/15 03:14:45;;;;;;;21.90;11.48;;;14.70;70.70;;;;;;5058369;28;20041;-73
2021/05/15 03:17:12;;;;;;;19.98;12.68;;;14.70;70.50;;;;;;5088760;28;20061;-73
2021/05/15 03:19:38;;;;;;;20.60;12.98;;;14.70;70.40;;;;;;5065576;28;20028;-72
2021/05/15 03:22:04;;;;;;;20.50;13.35;;;14.50;70.60;;;;;;5058003;28;20051;-72
2021/05/15 03:24:31;;;;;;;18.75;13.10;;;14.40;70.90;;;;;;5063436;28;20036;-71
2021/05/15 03:26:58;;;;;;;18.50;12.88;;;14.30;71.20;;;;;;5057747;28;20474;-72
2021/05/15 03:29:24;;;;;;;19.08;13.88;;;14.20;71.40;;;;;;5062990;28;20029;-72
2021/05/15 03:31:50;;;;;;;22.13;12.93;;;14.20;71.50;;;;;;5064793;28;20872;-72
2021/05/15 03:34:16;;;;;;;20.17;11.82;;;14.30;71.60;;;;;;5067666;28;20040;-73
2021/05/15 03:36:41;;;;;;;22.02;12.25;;;14.30;71.60;;;;;;5053059;28;20091;-73
2021/05/15 03:39:07;;;;;;;20.83;12.98;;;14.30;71.50;;;;;;5067267;28;20043;-72
2021/05/15 03:41:33;;;;;;;23.88;14.60;;;14.30;71.30;;;;;;5064204;28;20252;-72
2021/05/15 03:43:59;;;;;;;19.80;13.25;;;14.30;71.40;;;;;;5063288;28;20036;-72
2021/05/15 03:46:25;;;;;;;20.15;12.07;;;14.30;71.30;;;;;;5058274;28;20029;-72
2021/05/15 03:48:50;;;;;;;20.48;13.50;;;14.30;71.30;;;;;;5057997;28;20762;-72
2021/05/15 03:51:16;;;;;;;22.23;13.57;;;14.40;71.40;;;;;;5058864;28;20035;-72
2021/05/15 03:53:42;;;;;;;22.30;12.95;;;14.40;71.30;;;;;;5061996;28;20052;-73
2021/05/15 03:56:08;;;;;;;27.08;14.57;;;14.40;71.30;;;;;;5064746;28;20065;-73
2021/05/15 03:58:33;;;;;;;21.58;13.07;;;14.50;71.40;;;;;;5061513;28;20037;-72
2021/05/15 04:00:59;;;;;;;20.92;13.02;;;14.50;71.30;;;;;;5054832;28;20386;-73
2021/05/15 04:03:25;;;;;;;20.95;13.05;;;14.50;71.30;;;;;;5057208;28;20090;-72
2021/05/15 04:05:50;;;;;;;21.33;13.52;;;14.50;71.30;;;;;;5065510;28;20402;-73
2021/05/15 04:08:17;;;;;;;22.02;14.20;;;14.50;71.30;;;;;;5064536;28;20459;-72
2021/05/15 04:10:42;;;;;;;19.63;12.85;;;14.50;71.20;;;;;;5067290;28;20119;-72
2021/05/15 04:16:08;;;;;;;20.95;13.18;;;14.60;71.60;;;;;;5058281;28;20041;-73
2021/05/15 04:18:34;;;;;;;19.05;12.93;;;14.60;71.50;;;;;;5053854;28;20033;-72
2021/05/15 04:21:01;;;;;;;20.38;12.13;;;14.60;71.50;;;;;;5060451;28;20028;-72
2021/05/15 04:23:26;;;;;;;23.83;14.68;;;14.70;71.40;;;;;;5065042;28;20041;-73
2021/05/15 04:25:53;;;;;;;20.90;13.52;;;14.70;71.30;;;;;;5049594;28;20839;-72
2021/05/15 04:28:19;;;;;;;20.33;13.80;;;14.80;71.20;;;;;;5054970;28;21439;-73
2021/05/15 04:30:46;;;;;;;22.10;13.02;;;14.80;71.20;;;;;;5049570;28;20043;-72
2021/05/15 04:33:12;;;;;;;21.17;14.85;;;14.70;71.10;;;;;;5058166;28;20033;-72
2021/05/15 04:35:38;;;;;;;20.13;13.13;;;14.70;71.10;;;;;;5056845;28;20075;-72
2021/05/15 04:38:05;;;;;;;21.35;13.10;;;14.80;71.30;;;;;;5053147;28;20541;-72
2021/05/15 04:40:31;;;;;;;21.77;13.73;;;14.80;71.20;;;;;;5068490;28;20036;-72
2021/05/15 04:42:58;;;;;;;21.75;12.98;;;14.80;71.30;;;;;;5064973;28;20067;-72
2021/05/15 04:45:26;;;;;;;22.13;14.38;;;14.80;71.30;;;;;;5053439;28;20107;-72
2021/05/15 04:47:52;;;;;;;20.08;13.70;;;14.80;71.50;;;;;;5050211;28;20023;-73
2021/05/15 04:50:18;;;;;;;19.77;13.52;;;14.90;71.70;;;;;;5055735;28;20024;-72
2021/05/15 04:52:43;;;;;;;24.45;16.20;;;14.90;71.40;;;;;;5058260;28;20495;-72
2021/05/15 04:55:09;;;;;;;23.88;15.32;;;15.00;71.40;;;;;;5055710;28;20039;-72
2021/05/15 04:57:35;;;;;;;25.48;14.02;;;15.00;71.10;;;;;;5057748;28;20135;-72
2021/05/15 05:00:01;;;;;;;24.90;16.40;;;15.00;71.10;;;;;;5053318;28;20457;-72
2021/05/15 05:02:26;;;;;;;24.48;15.35;;;15.10;71.10;;;;;;5051305;28;20041;-72
2021/05/15 05:04:52;;;;;;;25.67;14.93;;;15.10;71.00;;;;;;5049772;28;20348;-72
2021/05/15 05:07:18;;;;;;;24.42;15.45;;;15.10;71.00;;;;;;5050030;28;20037;-72
2021/05/15 05:09:43;;;;;;;23.58;15.13;;;15.00;71.10;;;;;;5065951;28;20036;-72
2021/05/15 05:12:09;;;;;;;29.25;15.95;;;15.00;71.30;;;;;;5061628;28;20128;-72
2021/05/15 05:14:37;;;;;;;25.20;17.40;;;14.90;71.80;;;;;;5053249;28;20033;-72
2021/05/15 05:17:04;;;;;;;29.27;18.52;;;14.80;72.40;;;;;;5053393;28;20029;-72
2021/05/15 05:19:29;;;;;;;29.52;19.30;;;14.70;72.50;;;;;;5056642;28;20033;-72
2021/05/15 05:21:55;;;;;;;28.52;17.38;;;14.80;72.60;;;;;;5063783;28;20152;-72
2021/05/15 05:24:22;;;;;;;22.58;15.38;;;14.80;72.40;;;;;;5067575;28;20043;-73
2021/05/15 05:26:47;;;;;;;24.73;18.27;;;14.90;72.30;;;;;;5058107;28;20082;-73
2021/05/15 05:29:13;;;;;;;25.42;18.20;;;14.90;72.30;;;;;;5051147;28;20040;-72
2021/05/15 05:31:40;;;;;;;28.65;18.15;;;15.00;72.30;;;;;;5055968;28;20144;-72
2021/05/15 05:34:07;;;;;;;27.75;19.63;;;14.90;72.40;;;;;;5050115;28;20028;-72
2021/05/15 05:36:34;;;;;;;26.70;17.83;;;15.00;72.40;;;;;;5063544;28;20106;-72
2021/05/15 05:39:00;;;;;;;28.33;18.92;;;15.00;72.30;;;;;;5053572;28;20046;-72
2021/05/15 05:41:26;;;;;;;26.02;19.08;;;15.00;72.40;;;;;;5051269;28;20412;-72
2021/05/15 05:43:52;;;;;;;26.77;19.40;;;15.00;72.60;;;;;;5055492;28;20134;-72
2021/05/15 05:46:19;;;;;;;28.48;19.02;;;14.90;72.70;;;;;;5050838;28;20431;-73
2021/05/15 05:48:45;;;;;;;25.13;17.35;;;14.90;73.00;;;;;;5053233;28;20024;-72
2021/05/15 05:51:11;;;;;;;25.85;17.65;;;14.80;73.10;;;;;;5053813;28;20451;-73
2021/05/15 05:53:37;;;;;;;24.20;17.48;;;14.90;73.50;;;;;;5056841;28;20072;-71
2021/05/15 05:56:03;;;;;;;28.27;18.17;;;14.80;73.70;;;;;;5063804;28;20053;-72
2021/05/15 05:58:28;;;;;;;26.60;17.92;;;14.90;74.00;;;;;;5057233;28;20127;-73
2021/05/15 06:00:54;;;;;;;27.67;17.58;;;14.90;73.80;;;;;;5059235;28;20557;-72
2021/05/15 06:03:20;;;;;;;30.10;20.60;;;15.00;73.90;;;;;;5057732;28;20049;-72
2021/05/15 06:05:45;;;;;;;29.33;18.70;;;15.00;73.80;;;;;;5061914;28;20143;-72
2021/05/15 06:08:12;;;;;;;39.25;22.13;;;15.00;73.90;;;;;;5057525;28;20040;-72
2021/05/15 06:10:38;;;;;;;28.80;20.35;;;15.00;74.30;;;;;;5063010;28;20087;-72
2021/05/15 06:13:09;;;;;;;37.55;24.85;;;15.00;74.60;;;;;;5053292;28;20033;-72
2021/05/15 06:15:35;;;;;;;27.40;20.00;;;15.00;74.60;;;;;;5055203;28;20102;-72
2021/05/15 06:18:01;;;;;;;34.75;22.00;;;15.00;74.70;;;;;;5081132;28;20060;-73
2021/05/15 06:20:28;;;;;;;29.20;18.73;;;15.10;74.70;;;;;;5049287;28;20047;-73
2021/05/15 06:22:54;;;;;;;27.02;18.52;;;15.10;74.50;;;;;;5049982;28;20065;-72
2021/05/15 06:25:19;;;;;;;29.52;19.38;;;15.20;74.60;;;;;;5056441;28;20071;-73
2021/05/15 06:27:45;;;;;;;31.08;18.77;;;15.30;74.40;;;;;;5049004;28;20549;-73
2021/05/15 06:30:12;;;;;;;33.63;25.65;;;15.40;74.30;;;;;;5050194;28;20032;-73
2021/05/15 06:32:37;;;;;;;31.92;22.40;;;15.40;74.40;;;;;;5063089;28;20071;-73
2021/05/15 06:35:03;;;;;;;29.20;20.20;;;15.30;74.80;;;;;;5051078;28;20060;-74
2021/05/15 06:37:29;;;;;;;29.67;22.20;;;15.30;74.80;;;;;;5061569;28;20414;-74
2021/05/15 06:39:55;;;;;;;38.63;24.20;;;15.30;75.00;;;;;;5064502;28;20111;-74
2021/05/15 06:42:20;;;;;;;29.23;22.77;;;15.30;74.90;;;;;;5065375;28;20037;-73
2021/05/15 06:44:48;;;;;;;34.90;23.30;;;15.40;74.80;;;;;;5061796;28;20346;-73
2021/05/15 06:47:14;;;;;;;30.35;21.65;;;15.50;74.70;;;;;;5052208;28;20123;-73
2021/05/15 06:49:40;;;;;;;32.03;25.02;;;15.50;74.50;;;;;;5062656;28;20442;-73
2021/05/15 06:52:05;;;;;;;29.92;21.83;;;15.60;74.50;;;;;;5061101;28;20151;-73
2021/05/15 06:54:31;;;;;;;41.08;25.48;;;15.60;74.50;;;;;;5054896;28;20327;-73
2021/05/15 06:56:57;;;;;;;46.55;29.02;;;15.60;74.40;;;;;;5045116;28;20072;-73
2021/05/15 06:59:23;;;;;;;44.58;29.70;;;15.70;74.30;;;;;;5057718;28;20052;-73
2021/05/15 07:01:48;;;;;;;41.45;28.52;;;15.70;73.90;;;;;;5064686;28;20044;-73
2021/05/15 07:04:14;;;;;;;40.75;27.00;;;15.80;73.70;;;;;;5051318;28;20135;-72
2021/05/15 07:06:40;;;;;;;53.63;32.03;;;15.80;73.50;;;;;;5051155;28;20432;-73
2021/05/15 07:09:06;;;;;;;43.22;27.55;;;15.90;73.10;;;;;;5064510;28;20039;-73
2021/05/15 07:11:32;;;;;;;40.22;28.17;;;16.00;72.80;;;;;;5066619;28;20037;-73
2021/05/15 07:13:57;;;;;;;42.80;28.52;;;16.00;72.30;;;;;;5067578;28;20040;-74
2021/05/15 07:16:23;;;;;;;44.42;30.27;;;16.10;72.10;;;;;;5050802;28;20517;-73
2021/05/15 07:18:49;;;;;;;47.45;29.15;;;16.20;71.90;;;;;;5063176;28;20089;-73
2021/05/15 07:21:15;;;;;;;44.83;30.05;;;16.30;71.40;;;;;;5052100;28;20040;-74
2021/05/15 07:23:40;;;;;;;39.40;28.92;;;16.40;71.10;;;;;;5055224;28;20032;-74
2021/05/15 07:26:08;;;;;;;44.90;30.13;;;16.50;70.70;;;;;;5056078;28;20086;-74
2021/05/15 07:28:37;;;;;;;38.67;26.58;;;16.60;70.50;;;;;;5048176;28;20037;-73
2021/05/15 07:31:03;;;;;;;39.33;28.90;;;16.60;70.20;;;;;;5056296;28;20025;-73
2021/05/15 07:33:29;;;;;;;44.95;29.67;;;16.70;69.40;;;;;;5055720;28;20239;-73
2021/05/15 07:35:54;;;;;;;40.58;29.08;;;16.80;68.70;;;;;;5065055;28;20390;-73
2021/05/15 07:38:22;;;;;;;35.25;25.33;;;16.80;68.80;;;;;;5057043;28;20044;-74
2021/05/15 07:40:48;;;;;;;37.65;25.23;;;16.90;69.00;;;;;;5058413;28;20045;-73
2021/05/15 07:43:15;;;;;;;33.45;24.10;;;16.90;68.60;;;;;;5053740;28;20040;-73
2021/05/15 07:45:41;;;;;;;39.55;26.75;;;17.00;68.10;;;;;;5053756;28;20052;-73
2021/05/15 07:48:06;;;;;;;38.80;26.27;;;17.10;67.60;;;;;;5055276;28;20473;-73
2021/05/15 07:50:32;;;;;;;30.80;21.92;;;17.10;67.30;;;;;;5055974;28;20526;-73
2021/05/15 07:52:58;;;;;;;34.35;24.02;;;17.20;66.40;;;;;;5065656;28;20112;-73
2021/05/15 07:55:24;;;;;;;37.58;24.42;;;17.40;65.20;;;;;;5052197;28;20035;-73
2021/05/15 07:57:50;;;;;;;32.25;23.10;;;17.50;65.30;;;;;;5058314;28;20391;-73
2021/05/15 08:00:16;;;;;;;31.88;21.83;;;17.60;65.00;;;;;;5067708;28;20025;-72
2021/05/15 08:02:42;;;;;;;31.30;22.60;;;17.60;64.20;;;;;;5061482;28;20044;-72
2021/05/15 08:05:10;;;;;;;33.22;23.95;;;17.60;64.10;;;;;;5054330;28;20075;-72
2021/05/15 08:07:38;;;;;;;32.00;22.52;;;17.50;63.70;;;;;;5058501;28;20104;-71
2021/05/15 08:10:06;;;;;;;31.60;23.08;;;17.40;64.10;;;;;;5059516;28;20040;-71
2021/05/15 08:12:32;;;;;;;31.25;21.92;;;17.30;64.40;;;;;;5061209;28;20483;-71
2021/05/15 08:14:58;;;;;;;29.92;23.45;;;17.30;64.30;;;;;;5064108;28;20124;-72
2021/05/15 08:17:24;;;;;;;29.83;22.25;;;17.30;64.40;;;;;;5061618;28;20094;-72
2021/05/15 08:19:49;;;;;;;27.52;20.90;;;17.20;64.50;;;;;;5062044;28;20474;-72
2021/05/15 08:22:15;;;;;;;32.92;21.80;;;17.20;64.50;;;;;;5073269;28;20476;-73
2021/05/15 08:24:41;;;;;;;30.85;22.70;;;17.20;64.50;;;;;;5079941;28;20026;-73
2021/05/15 08:27:06;;;;;;;29.98;21.85;;;17.20;64.80;;;;;;5071333;28;20776;-76
2021/05/15 08:29:33;;;;;;;31.08;22.42;;;17.30;64.90;;;;;;5064623;28;20052;-78
2021/05/15 08:32:00;;;;;;;28.30;20.83;;;17.30;64.30;;;;;;5069394;28;20531;-76
2021/05/15 08:34:26;;;;;;;34.15;24.17;;;17.40;64.30;;;;;;5063100;28;20067;-75
2021/05/15 08:36:51;;;;;;;30.27;22.23;;;17.50;64.30;;;;;;5063556;28;20033;-76
2021/05/15 08:39:17;;;;;;;28.50;22.25;;;18.00;63.70;;;;;;5059685;28;20116;-75
2021/05/15 08:41:43;;;;;;;29.15;22.40;;;18.80;61.80;;;;;;5060429;28;20025;-75
2021/05/15 08:44:13;;;;;;;31.10;23.10;;;19.20;59.10;;;;;;5063252;28;20045;-75
2021/05/15 08:46:44;;;;;;;27.77;20.65;;;19.50;58.00;;;;;;5061784;28;22044;-78
2021/05/15 08:49:14;;;;;;;30.00;21.38;;;19.70;57.00;;;;;;5069324;28;20036;-75
2021/05/15 08:51:41;;;;;;;24.50;19.38;;;19.90;56.70;;;;;;5067081;28;20151;-75
2021/05/15 08:54:08;;;;;;;27.55;18.30;;;20.00;56.00;;;;;;5052407;28;20107;-76
2021/05/15 08:56:34;;;;;;;25.05;20.00;;;20.00;55.50;;;;;;5066318;28;20209;-76
2021/05/15 08:58:59;;;;;;;23.45;17.55;;;20.00;54.90;;;;;;5048809;28;20036;-73
2021/05/15 09:01:25;;;;;;;21.88;18.65;;;20.10;54.00;;;;;;5067653;28;20060;-75
2021/05/15 09:03:51;;;;;;;26.33;18.33;;;20.30;53.60;;;;;;5063379;28;20028;-71
2021/05/15 09:06:17;;;;;;;20.13;15.48;;;20.40;53.70;;;;;;5060377;28;20075;-71
2021/05/15 09:08:50;;;;;;;21.33;16.33;;;20.40;52.30;;;;;;5063272;28;20093;-71
2021/05/15 09:11:16;;;;;;;22.45;16.40;;;20.20;53.50;;;;;;5062096;28;20029;-72
2021/05/15 09:13:53;;;;;;;21.33;16.30;;;19.90;53.00;;;;;;5065227;28;20035;-74
2021/05/15 09:16:20;;;;;;;21.55;15.32;;;19.60;53.30;;;;;;5067206;28;20032;-74
2021/05/15 09:18:46;;;;;;;21.67;16.35;;;19.30;53.80;;;;;;5066416;28;20036;-70
2021/05/15 09:21:14;;;;;;;24.33;17.15;;;19.00;54.60;;;;;;5062991;28;20036;-75
2021/05/15 09:23:44;;;;;;;21.35;16.08;;;18.80;55.80;;;;;;5067342;28;20024;-74
2021/05/15 09:26:20;;;;;;;21.48;16.30;;;18.80;56.40;;;;;;5048214;28;20037;-76
2021/05/15 09:28:47;;;;;;;22.67;15.18;;;18.80;56.70;;;;;;5061486;28;20027;-75
2021/05/15 09:31:19;;;;;;;22.05;16.42;;;19.00;56.60;;;;;;5060809;28;20036;-74
2021/05/15 09:33:53;;;;;;;23.25;16.58;;;19.00;56.50;;;;;;5063896;28;20025;-75
2021/05/15 09:36:18;;;;;;;20.70;16.00;;;18.90;56.00;;;;;;5061957;28;20017;-75
2021/05/15 09:38:45;;;;;;;22.73;16.52;;;18.90;56.70;;;;;;5066996;28;20027;-75
2021/05/15 09:41:11;;;;;;;23.70;17.70;;;18.80;56.60;;;;;;5065399;28;20111;-74
2021/05/15 09:43:37;;;;;;;23.65;16.80;;;18.70;56.80;;;;;;5061949;28;20056;-71
2021/05/15 09:46:04;;;;;;;26.70;17.15;;;18.60;56.70;;;;;;5058579;28;20083;-72
2021/05/15 09:48:36;;;;;;;23.35;17.77;;;18.50;57.00;;;;;;5067541;28;20116;-73
2021/05/15 09:51:17;;;;;;;24.23;19.85;;;18.50;57.20;;;;;;5065514;28;20036;-73
2021/05/15 09:53:44;;;;;;;23.95;17.95;;;18.60;57.00;;;;;;5065276;28;20031;-73
2021/05/15 09:56:11;;;;;;;20.10;16.75;;;18.90;57.30;;;;;;5050972;28;20059;-74
2021/05/15 09:58:37;;;;;;;21.75;17.70;;;19.40;57.30;;;;;;5065908;28;20479;-73
2021/05/15 10:01:03;;;;;;;23.83;18.60;;;20.10;55.70;;;;;;5069525;28;20139;-72
2021/05/15 10:03:35;;;;;;;22.75;17.40;;;20.70;54.60;;;;;;5072673;28;20108;-72
2021/05/15 10:06:12;;;;;;;23.08;17.85;;;21.40;53.10;;;;;;5058764;28;20033;-72
2021/05/15 10:08:43;;;;;;;24.00;17.00;;;22.00;51.20;;;;;;5065610;28;20618;-73
2021/05/15 10:11:09;;;;;;;21.20;16.33;;;22.40;50.70;;;;;;5064674;28;20028;-73
2021/05/15 10:13:37;;;;;;;29.67;15.43;;;22.80;49.70;;;;;;5066087;28;20504;-73
2021/05/15 10:16:04;;;;;;;22.30;16.30;;;23.20;47.20;;;;;;5068083;28;20067;-73
2021/05/15 10:18:31;;;;;;;20.38;15.93;;;23.30;46.40;;;;;;5065355;28;20435;-73
2021/05/15 10:20:57;;;;;;;22.70;16.23;;;23.30;45.50;;;;;;5066118;28;20142;-73
2021/05/15 10:23:44;;;;;;;19.92;15.65;;;23.00;45.40;;;;;;5063189;28;20055;-73
2021/05/15 10:26:16;;;;;;;23.45;18.58;;;22.60;45.90;;;;;;5065886;28;20040;-73
2021/05/15 10:28:43;;;;;;;20.95;16.20;;;22.20;47.30;;;;;;5063009;28;20104;-73
2021/05/15 10:31:17;;;;;;;19.48;16.65;;;22.30;47.40;;;;;;5053636;28;20033;-73
2021/05/15 10:33:47;;;;;;;19.38;15.30;;;22.50;47.20;;;;;;5048112;28;20112;-73
2021/05/15 10:36:24;;;;;;;20.90;16.25;;;22.80;46.20;;;;;;5052058;28;20032;-73
2021/05/15 10:38:52;;;;;;;18.33;13.30;;;23.10;46.00;;;;;;5063624;28;20139;-73
2021/05/15 10:41:27;;;;;;;19.48;15.35;;;23.50;44.40;;;;;;5053963;28;20516;-73
2021/05/15 10:43:55;;;;;;;18.40;13.65;;;22.60;43.70;;;;;;5057786;28;20243;-72
2021/05/15 10:46:25;;;;;;;18.02;12.07;;;23.50;44.70;;;;;;5060855;28;20036;-73
2021/05/15 10:48:57;;;;;;;15.23;12.32;;;23.60;43.90;;;;;;5062985;28;20127;-75
2021/05/15 10:51:47;;;;;;;22.85;16.10;;;23.80;43.30;;;;;;5064438;28;20036;-75
2021/05/15 10:54:16;;;;;;;16.98;13.27;;;23.40;43.10;;;;;;5066002;28;20490;-74
2021/05/15 10:56:41;;;;;;;17.75;13.40;;;23.00;44.20;;;;;;5065416;28;20486;-74
2021/05/15 10:59:10;;;;;;;17.75;13.13;;;22.80;44.40;;;;;;5066707;28;20066;-74
2021/05/15 11:01:49;;;;;;;16.25;12.70;;;22.70;45.00;;;;;;5061056;28;20029;-73
2021/05/15 11:04:29;;;;;;;19.70;13.43;;;22.50;44.80;;;;;;5065060;28;20032;-74
2021/05/15 11:07:15;;;;;;;20.65;15.60;;;22.40;45.30;;;;;;5067041;28;20016;-73
2021/05/15 11:10:01;;;;;;;18.55;14.25;;;22.20;44.50;;;;;;5052103;28;20049;-73
2021/05/15 11:12:30;;;;;;;17.70;14.43;;;22.00;45.50;;;;;;5055089;28;20040;-73
2021/05/15 11:15:04;;;;;;;17.38;13.43;;;22.10;46.00;;;;;;5051168;28;20120;-73
2021/05/15 11:17:30;;;;;;;14.68;11.95;;;22.10;45.80;;;;;;5052265;28;20467;-73
2021/05/15 11:19:57;;;;;;;18.83;12.75;;;22.20;45.30;;;;;;5050301;28;20094;-73
2021/05/15 11:22:49;;;;;;;17.88;12.32;;;22.20;45.50;;;;;;5063717;28;20093;-73
2021/05/15 11:25:14;;;;;;;17.27;12.93;;;22.40;45.40;;;;;;5067625;28;20121;-73
2021/05/15 11:27:48;;;;;;;19.30;13.77;;;22.20;45.10;;;;;;5062045;28;20154;-73
2021/05/15 11:30:21;;;;;;;23.13;14.35;;;22.10;45.70;;;;;;5064409;28;20400;-73
2021/05/15 11:33:08;;;;;;;18.92;14.63;;;21.90;45.50;;;;;;5070544;28;20016;-73
2021/05/15 11:35:41;;;;;;;18.02;13.48;;;21.70;46.40;;;;;;5060272;28;20029;-73
2021/05/15 11:38:10;;;;;;;;;;;21.60;47.00;;;;;;5051961;28;20107;-73
2021/05/15 11:40:38;;;;;;;20.13;15.18;;;21.70;45.70;;;;;;5084006;28;20361;-73
2021/05/15 11:43:05;;;;;;;19.27;14.95;;;21.60;46.10;;;;;;5057128;28;20509;-73
2021/05/15 11:45:33;;;;;;;18.33;13.82;;;21.60;46.10;;;;;;5051619;28;20613;-73
2021/05/15 11:48:20;;;;;;;17.73;12.52;;;21.70;46.00;;;;;;5051424;28;20024;-73
2021/05/15 11:51:09;;;;;;;17.60;13.32;;;21.80;46.30;;;;;;5061848;28;20304;-73
2021/05/15 11:53:39;;;;;;;25.08;14.45;;;21.80;45.50;;;;;;5072472;28;20036;-73
2021/05/15 11:56:16;;;;;;;18.25;13.68;;;22.20;46.50;;;;;;5066923;28;20044;-73
2021/05/15 11:58:46;;;;;;;17.52;14.13;;;21.50;46.50;;;;;;5071768;28;20025;-73
2021/05/15 12:01:34;;;;;;;19.00;13.07;;;21.30;46.90;;;;;;5063039;28;20047;-73
2021/05/15 12:04:30;;;;;;;22.40;14.77;;;21.10;47.50;;;;;;5052640;28;20025;-73
2021/05/15 12:07:04;;;;;;;18.10;11.90;;;20.40;52.00;;;;;;5062069;28;20063;-73
2021/05/15 12:09:31;;;;;;;15.18;9.93;;;20.20;53.30;;;;;;5050885;28;20029;-73
2021/05/15 12:11:59;;;;;;;11.45;7.93;;;19.70;56.70;;;;;;5053318;28;20067;-73
2021/05/15 12:14:26;;;;;;;11.35;5.82;;;19.10;57.50;;;;;;5070587;28;20029;-73
2021/05/15 12:16:52;;;;;;;10.23;4.82;;;18.80;58.70;;;;;;5034753;28;20067;-72
2021/05/15 12:19:27;;;;;;;8.85;5.13;;;18.50;59.50;;;;;;5069464;28;20024;-73
2021/05/15 12:21:54;;;;;;;7.60;4.25;;;18.20;60.40;;;;;;5072477;28;20060;-73
2021/05/15 12:24:21;;;;;;;7.82;4.60;;;18.10;61.90;;;;;;5067376;28;20032;-73
2021/05/15 12:26:46;;;;;;;9.10;4.80;;;18.10;61.60;;;;;;5046738;28;20078;-72
2021/05/15 12:29:12;;;;;;;6.97;3.30;;;18.20;62.60;;;;;;5069174;28;20036;-73
2021/05/15 12:31:42;;;;;;;7.85;3.40;;;18.50;63.00;;;;;;5071830;28;20071;-73
2021/05/15 12:34:08;;;;;;;5.78;2.80;;;18.70;63.80;;;;;;5069359;28;20104;-73